createdAt,value
2022-08-09T00:00:00.202Z,17.31
2022-08-09T00:02:28.792Z,17.38
2022-08-09T00:05:03.725Z,17.39
2022-08-09T00:07:44.628Z,17.32
2022-08-09T00:10:18.212Z,17.38
2022-08-09T00:12:52.552Z,17.34
2022-08-09T00:15:26.635Z,17.24
2022-08-09T00:18:11.547Z,17.05
2022-08-09T00:20:42.503Z,17.20
2022-08-09T00:23:58.352Z,17.23
2022-08-09T00:26:05.084Z,17.21
2022-08-09T00:28:34.576Z,17.09
2022-08-09T00:31:30.580Z,17.19
2022-08-09T00:33:51.819Z,17.12
2022-08-09T00:36:19.967Z,16.89
2022-08-09T00:38:46.896Z,16.93
2022-08-09T00:44:14.813Z,16.96
2022-08-09T00:44:20.129Z,16.75
2022-08-09T00:46:57.320Z,16.75
2022-08-09T00:49:32.031Z,16.93
2022-08-09T00:52:05.408Z,16.95
2022-08-09T00:54:43.146Z,16.95
2022-08-09T00:57:12.110Z,16.81
2022-08-09T00:59:47.194Z,16.91
2022-08-09T01:02:22.313Z,16.62
2022-08-09T01:04:50.262Z,16.65
2022-08-09T01:07:38.030Z,16.79
2022-08-09T01:10:25.831Z,16.75
2022-08-09T01:13:03.591Z,16.83
2022-08-09T01:15:40.943Z,16.81
2022-08-09T01:18:14.297Z,16.66
2022-08-09T01:20:47.229Z,16.59
2022-08-09T01:24:02.149Z,16.77
2022-08-09T01:26:31.027Z,16.85
2022-08-09T01:29:00.767Z,16.77
2022-08-09T01:32:31.361Z,16.47
2022-08-09T01:34:19.864Z,16.42
2022-08-09T01:36:48.952Z,16.44
2022-08-09T01:39:17.748Z,16.46
2022-08-09T01:41:53.505Z,16.45
2022-08-09T01:44:29.168Z,16.47
2022-08-09T01:46:59.311Z,16.46
2022-08-09T01:49:31.995Z,16.27
2022-08-09T01:52:10.871Z,16.33
2022-08-09T01:54:50.826Z,16.44
2022-08-09T01:57:27.283Z,16.42
2022-08-09T02:00:09.120Z,16.31
2022-08-09T02:02:49.550Z,16.19
2022-08-09T02:05:37.987Z,16.12
2022-08-09T02:08:39.387Z,16.09
2022-08-09T02:11:13.406Z,16.02
2022-08-09T02:14:02.075Z,15.89
2022-08-09T02:17:00.023Z,15.96
2022-08-09T02:19:22.827Z,16.05
2022-08-09T02:21:55.903Z,16.10
2022-08-09T02:24:29.731Z,16.11
2022-08-09T02:27:01.878Z,16.04
2022-08-09T02:29:33.870Z,16.05
2022-08-09T02:32:03.900Z,15.95
2022-08-09T02:34:40.140Z,15.82
2022-08-09T02:37:16.340Z,15.87
2022-08-09T02:39:55.318Z,15.81
2022-08-09T02:42:38.521Z,15.75
2022-08-09T02:45:13.400Z,15.69
2022-08-09T02:47:57.442Z,15.57
2022-08-09T02:51:02.801Z,15.80
2022-08-09T02:53:37.058Z,15.77
2022-08-09T02:56:06.219Z,15.61
2022-08-09T02:58:36.433Z,15.64
2022-08-09T03:01:08.291Z,15.38
2022-08-09T03:04:16.962Z,14.95
2022-08-09T03:06:27.871Z,15.19
2022-08-09T03:08:57.775Z,15.36
2022-08-09T03:11:29.712Z,15.47
2022-08-09T03:14:13.659Z,15.44
2022-08-09T03:16:47.734Z,15.48
2022-08-09T03:19:59.653Z,15.44
2022-08-09T03:22:11.764Z,15.39
2022-08-09T03:24:52.220Z,15.33
2022-08-09T03:27:21.352Z,15.33
2022-08-09T03:29:57.073Z,15.37
2022-08-09T03:32:26.099Z,15.34
2022-08-09T03:34:53.862Z,15.20
2022-08-09T03:37:56.620Z,15.25
2022-08-09T03:40:08.823Z,15.32
2022-08-09T03:42:39.853Z,15.28
2022-08-09T03:45:10.923Z,15.17
2022-08-09T03:47:41.943Z,15.12
2022-08-09T03:50:14.316Z,15.08
2022-08-09T03:52:57.980Z,15.08
2022-08-09T03:55:27.110Z,14.94
2022-08-09T03:58:03.202Z,14.94
2022-08-09T04:00:33.266Z,14.94
2022-08-09T04:03:01.043Z,14.99
2022-08-09T04:05:28.253Z,15.02
2022-08-09T04:07:57.202Z,14.78
2022-08-09T04:10:29.368Z,14.68
2022-08-09T04:12:58.142Z,14.84
2022-08-09T04:15:38.730Z,14.96
2022-08-09T04:18:16.473Z,15.06
2022-08-09T04:20:46.132Z,14.90
2022-08-09T04:23:16.897Z,15.01
2022-08-09T04:25:49.623Z,14.98
2022-08-09T04:28:33.978Z,14.99
2022-08-09T04:31:05.887Z,15.05
2022-08-09T04:33:52.182Z,15.10
2022-08-09T04:36:24.986Z,15.04
2022-08-09T04:38:52.915Z,14.98
2022-08-09T04:41:23.592Z,14.90
2022-08-09T04:44:05.828Z,14.83
2022-08-09T04:46:56.924Z,14.83
2022-08-09T04:49:22.329Z,14.70
2022-08-09T04:52:09.689Z,15.03
2022-08-09T04:54:37.052Z,15.03
2022-08-09T04:57:04.242Z,15.10
2022-08-09T04:59:31.545Z,15.16
2022-08-09T05:01:58.714Z,15.26
2022-08-09T05:04:31.518Z,15.31
2022-08-09T05:06:58.700Z,15.41
2022-08-09T05:09:42.255Z,15.50
2022-08-09T05:12:12.690Z,15.57
2022-08-09T05:14:41.238Z,15.62
2022-08-09T05:18:36.517Z,15.67
2022-08-09T05:19:56.973Z,15.82
2022-08-09T05:23:50.955Z,15.89
2022-08-09T05:25:11.020Z,16.07
2022-08-09T05:27:44.381Z,16.10
2022-08-09T05:30:13.109Z,16.29
2022-08-09T05:32:41.964Z,16.39
2022-08-09T05:35:11.358Z,16.52
2022-08-09T05:37:47.536Z,16.65
2022-08-09T05:40:15.384Z,16.79
2022-08-09T05:42:42.873Z,16.92
2022-08-09T05:45:10.617Z,16.84
2022-08-09T05:47:52.225Z,17.10
2022-08-09T05:50:36.238Z,17.06
2022-08-09T05:53:21.765Z,17.23
2022-08-09T05:55:58.287Z,17.35
2022-08-09T05:58:24.963Z,17.47
2022-08-09T06:00:53.423Z,17.45
2022-08-09T06:03:20.684Z,17.55
2022-08-09T06:05:54.782Z,17.68
2022-08-09T06:08:31.022Z,17.46
2022-08-09T06:10:59.225Z,17.43
2022-08-09T06:13:28.640Z,17.50
2022-08-09T06:16:00.512Z,18.16
2022-08-09T06:18:28.411Z,18.00
2022-08-09T06:20:57.808Z,18.29
2022-08-09T06:23:55.655Z,18.32
2022-08-09T06:26:15.276Z,18.56
2022-08-09T06:29:00.591Z,18.68
2022-08-09T06:31:39.828Z,18.49
2022-08-09T06:34:18.718Z,18.65
2022-08-09T06:36:45.932Z,19.04
2022-08-09T06:39:13.610Z,19.08
2022-08-09T06:42:08.941Z,19.06
2022-08-09T06:44:28.140Z,19.21
2022-08-09T06:46:54.952Z,19.28
2022-08-09T06:49:44.558Z,19.25
2022-08-09T06:52:10.232Z,19.57
2022-08-09T06:54:39.050Z,19.60
2022-08-09T06:57:08.400Z,19.74
2022-08-09T07:00:50.917Z,19.79
2022-08-09T07:02:22.072Z,19.52
2022-08-09T07:04:56.249Z,19.97
2022-08-09T07:08:00.766Z,19.85
2022-08-09T07:10:24.427Z,20.25
2022-08-09T07:12:57.052Z,20.35
2022-08-09T07:16:38.484Z,20.27
2022-08-09T07:18:11.365Z,20.30
2022-08-09T07:20:41.012Z,20.16
2022-08-09T07:23:18.973Z,20.04
2022-08-09T07:25:47.406Z,19.67
2022-08-09T07:28:19.265Z,19.33
2022-08-09T07:30:54.102Z,19.28
2022-08-09T07:33:21.978Z,19.19
2022-08-09T07:35:54.275Z,19.69
2022-08-09T07:38:23.328Z,20.06
2022-08-09T07:41:08.110Z,20.25
2022-08-09T07:43:49.561Z,20.68
2022-08-09T07:46:19.378Z,20.83
2022-08-09T07:48:46.620Z,21.22
2022-08-09T07:52:06.048Z,21.48
2022-08-09T07:54:12.391Z,21.58
2022-08-09T07:56:49.286Z,21.62
2022-08-09T07:59:25.367Z,21.74
2022-08-09T08:02:02.388Z,21.92
2022-08-09T08:04:32.233Z,21.88
2022-08-09T08:07:15.231Z,22.02
2022-08-09T08:09:55.089Z,21.99
2022-08-09T08:12:43.623Z,22.18
2022-08-09T08:15:17.171Z,22.21
2022-08-09T08:17:54.133Z,22.46
2022-08-09T08:20:27.235Z,22.52
2022-08-09T08:23:01.737Z,22.59
2022-08-09T08:25:44.736Z,22.65
2022-08-09T08:28:15.285Z,22.96
2022-08-09T08:30:44.159Z,23.24
2022-08-09T08:33:12.061Z,23.45
2022-08-09T08:35:58.500Z,23.32
2022-08-09T08:38:30.689Z,23.53
2022-08-09T08:40:58.788Z,23.64
2022-08-09T08:43:27.751Z,23.57
2022-08-09T08:46:10.093Z,23.81
2022-08-09T08:48:51.235Z,24.01
2022-08-09T08:51:21.372Z,24.19
2022-08-09T08:54:03.881Z,24.45
2022-08-09T08:56:35.314Z,24.39
2022-08-09T08:59:19.016Z,24.37
2022-08-09T09:01:52.079Z,24.59
2022-08-09T09:04:26.801Z,24.56
2022-08-09T09:06:57.452Z,24.47
2022-08-09T09:09:58.785Z,24.74
2022-08-09T09:12:17.174Z,24.95
2022-08-09T09:14:45.023Z,25.05
2022-08-09T09:17:13.041Z,25.26
2022-08-09T09:19:44.647Z,25.26
2022-08-09T09:22:26.731Z,25.54
2022-08-09T09:25:08.584Z,25.68
2022-08-09T09:28:06.519Z,25.59
2022-08-09T09:30:47.371Z,25.54
2022-08-09T09:33:16.342Z,25.83
2022-08-09T09:36:01.487Z,26.07
2022-08-09T09:38:44.163Z,25.90
2022-08-09T09:41:28.002Z,25.88
2022-08-09T09:44:12.856Z,26.14
2022-08-09T09:46:52.479Z,26.15
2022-08-09T09:49:49.763Z,26.16
2022-08-09T09:52:16.353Z,26.39
2022-08-09T09:55:24.137Z,26.48
2022-08-09T09:58:16.734Z,26.73
2022-08-09T10:00:55.095Z,26.90
2022-08-09T10:03:57.271Z,26.99
2022-08-09T10:06:42.585Z,26.95
2022-08-09T10:09:22.301Z,26.96
2022-08-09T10:12:11.375Z,27.12
2022-08-09T10:14:48.010Z,27.35
2022-08-09T10:17:51.417Z,27.38
2022-08-09T10:20:32.485Z,27.67
2022-08-09T10:23:23.802Z,27.43
2022-08-09T10:26:06.796Z,27.65
2022-08-09T10:28:40.274Z,27.58
2022-08-09T10:34:11.424Z,27.76
2022-08-09T10:36:50.225Z,28.10
2022-08-09T10:39:19.240Z,28.08
2022-08-09T10:41:47.738Z,28.19
2022-08-09T10:44:18.976Z,28.22
2022-08-09T10:47:03.845Z,28.41
2022-08-09T10:49:51.616Z,28.50
2022-08-09T10:52:33.463Z,28.30
2022-08-09T10:55:49.364Z,28.69
2022-08-09T10:58:37.378Z,28.75
2022-08-09T11:03:02.429Z,28.77
2022-08-09T11:04:19.714Z,28.85
2022-08-09T11:07:03.808Z,28.84
2022-08-09T11:09:47.995Z,29.29
2022-08-09T11:12:17.737Z,29.14
2022-08-09T11:14:51.417Z,29.30
2022-08-09T11:17:19.351Z,29.30
2022-08-09T11:20:23.043Z,29.23
2022-08-09T11:22:55.462Z,29.37
2022-08-09T11:25:45.202Z,29.56
2022-08-09T11:28:34.052Z,29.34
2022-08-09T11:31:39.865Z,29.62
2022-08-09T11:34:17.849Z,29.76
2022-08-09T11:36:45.347Z,29.86
2022-08-09T11:39:12.079Z,29.90
2022-08-09T11:41:40.670Z,30.00
2022-08-09T11:44:08.661Z,29.92
2022-08-09T11:46:57.042Z,30.08
2022-08-09T11:50:52.390Z,30.02
2022-08-09T11:53:21.019Z,30.01
2022-08-09T11:55:51.950Z,30.10
2022-08-09T11:58:19.705Z,30.13
2022-08-09T12:01:00.720Z,30.14
2022-08-09T12:03:54.824Z,30.38
2022-08-09T12:06:24.702Z,29.88
2022-08-09T12:08:55.945Z,30.06
2022-08-09T12:11:26.447Z,29.99
2022-08-09T12:14:06.951Z,30.23
2022-08-09T12:16:40.782Z,30.25
2022-08-09T12:19:09.959Z,30.43
2022-08-09T12:21:50.157Z,30.37
2022-08-09T12:24:24.425Z,30.45
2022-08-09T12:29:00.306Z,30.69
2022-08-09T12:30:02.102Z,30.66
2022-08-09T12:32:41.374Z,30.53
2022-08-09T12:35:10.759Z,30.49
2022-08-09T12:37:44.184Z,30.68
2022-08-09T12:40:18.882Z,30.64
2022-08-09T12:42:50.477Z,30.68
2022-08-09T12:45:34.507Z,31.04
2022-08-09T12:48:20.473Z,30.78
2022-08-09T12:50:57.772Z,30.82
2022-08-09T12:53:36.719Z,31.06
2022-08-09T12:56:42.880Z,31.17
2022-08-09T12:59:06.094Z,31.18
2022-08-09T13:01:32.925Z,31.15
2022-08-09T13:04:07.042Z,31.27
2022-08-09T13:06:54.085Z,31.57
2022-08-09T13:09:21.467Z,31.56
2022-08-09T13:11:50.571Z,31.59
2022-08-09T13:14:40.940Z,31.66
2022-08-09T13:17:16.113Z,31.75
2022-08-09T13:20:08.643Z,31.65
2022-08-09T13:23:00.960Z,31.92
2022-08-09T13:25:20.920Z,31.98
2022-08-09T13:27:55.468Z,31.65
2022-08-09T13:30:49.371Z,31.85
2022-08-09T13:33:24.828Z,31.68
2022-08-09T13:36:38.603Z,31.68
2022-08-09T13:39:01.200Z,31.78
2022-08-09T13:41:59.114Z,31.49
2022-08-09T13:44:21.660Z,31.62
2022-08-09T13:47:19.361Z,31.32
2022-08-09T13:49:39.647Z,31.68
2022-08-09T13:52:23.554Z,31.68
2022-08-09T13:55:00.115Z,31.83
2022-08-09T13:57:40.156Z,31.66
2022-08-09T14:00:12.071Z,31.82
2022-08-09T14:02:42.845Z,31.78
2022-08-09T14:05:56.878Z,31.81
2022-08-09T14:08:13.455Z,31.83
2022-08-09T14:10:49.087Z,31.99
2022-08-09T14:13:21.872Z,31.81
2022-08-09T14:16:06.984Z,31.66
2022-08-09T14:18:36.260Z,31.61
2022-08-09T14:21:03.503Z,31.66
2022-08-09T14:23:39.945Z,31.74
2022-08-09T14:26:20.541Z,31.93
2022-08-09T14:28:47.568Z,31.90
2022-08-09T14:31:14.307Z,31.85
2022-08-09T14:33:42.168Z,31.66
2022-08-09T14:36:19.908Z,31.60
2022-08-09T14:38:52.799Z,31.66
2022-08-09T14:41:26.693Z,31.88
2022-08-09T14:44:02.886Z,32.02
2022-08-09T14:46:55.821Z,32.03
2022-08-09T14:49:18.524Z,31.80
2022-08-09T14:51:50.136Z,31.69
2022-08-09T14:54:16.907Z,31.78
2022-08-09T14:56:57.979Z,31.67
2022-08-09T14:59:27.277Z,31.68
2022-08-09T15:01:55.659Z,31.79
2022-08-09T15:04:23.465Z,31.66
2022-08-09T15:06:51.359Z,31.50
2022-08-09T15:10:03.556Z,31.57
2022-08-09T15:12:08.243Z,31.64
2022-08-09T15:14:38.160Z,31.65
2022-08-09T15:17:09.289Z,31.65
2022-08-09T15:19:37.051Z,31.52
2022-08-09T15:22:23.590Z,31.48
2022-08-09T15:24:59.656Z,31.49
2022-08-09T15:27:30.385Z,31.54
2022-08-09T15:30:56.298Z,31.70
2022-08-09T15:33:01.639Z,31.76
2022-08-09T15:35:40.902Z,31.57
2022-08-09T15:38:12.193Z,31.61
2022-08-09T15:40:43.540Z,31.42
2022-08-09T15:43:13.743Z,31.56
2022-08-09T15:45:52.018Z,31.47
2022-08-09T15:48:30.627Z,31.50
2022-08-09T15:50:59.976Z,31.50
2022-08-09T15:54:04.780Z,31.41
2022-08-09T15:56:29.092Z,31.29
2022-08-09T15:58:58.678Z,30.85
2022-08-09T16:01:26.062Z,31.05
2022-08-09T16:03:52.797Z,30.90
2022-08-09T16:06:34.791Z,30.86
2022-08-09T16:09:05.218Z,30.79
2022-08-09T16:11:33.150Z,30.81
2022-08-09T16:14:03.274Z,30.73
2022-08-09T16:16:34.679Z,30.65
2022-08-09T16:19:04.571Z,30.90
2022-08-09T16:21:31.598Z,30.99
2022-08-09T16:24:02.732Z,30.77
2022-08-09T16:26:34.555Z,30.48
2022-08-09T16:29:14.127Z,30.32
2022-08-09T16:32:19.527Z,30.29
2022-08-09T16:34:54.512Z,30.19
2022-08-09T16:37:50.609Z,29.97
2022-08-09T16:40:08.700Z,29.89
2022-08-09T16:42:36.160Z,29.85
2022-08-09T16:45:05.335Z,29.87
2022-08-09T16:48:40.669Z,29.92
2022-08-09T16:50:31.145Z,29.75
2022-08-09T16:53:01.849Z,29.65
2022-08-09T16:55:31.587Z,29.49
2022-08-09T16:58:16.934Z,29.57
2022-08-09T17:00:44.007Z,29.50
2022-08-09T17:03:21.655Z,29.40
2022-08-09T17:06:03.509Z,29.22
2022-08-09T17:08:43.017Z,28.90
2022-08-09T17:11:40.988Z,28.78
2022-08-09T17:14:25.995Z,28.71
2022-08-09T17:17:00.216Z,28.53
2022-08-09T17:19:47.128Z,28.43
2022-08-09T17:22:24.051Z,28.39
2022-08-09T17:24:55.920Z,28.45
2022-08-09T17:27:32.281Z,28.31
2022-08-09T17:29:58.958Z,28.38
2022-08-09T17:32:26.702Z,28.36
2022-08-09T17:35:11.202Z,28.18
2022-08-09T17:38:12.905Z,28.40
2022-08-09T17:40:32.745Z,28.35
2022-08-09T17:43:10.901Z,28.15
2022-08-09T17:46:03.170Z,27.88
2022-08-09T17:48:38.845Z,27.87
2022-08-09T17:51:18.669Z,27.73
2022-08-09T17:53:52.323Z,27.75
2022-08-09T17:56:35.969Z,27.52
2022-08-09T17:59:09.057Z,27.47
2022-08-09T18:02:03.702Z,27.72
2022-08-09T18:04:25.292Z,27.80
2022-08-09T18:06:55.010Z,27.92
2022-08-09T18:09:23.569Z,27.95
2022-08-09T18:12:14.864Z,27.90
2022-08-09T18:14:49.726Z,27.92
2022-08-09T18:17:18.939Z,27.84
2022-08-09T18:20:59.614Z,27.86
2022-08-09T18:22:50.888Z,27.96
2022-08-09T18:25:18.077Z,27.94
2022-08-09T18:28:03.733Z,27.59
2022-08-09T18:30:38.593Z,27.70
2022-08-09T18:33:15.344Z,27.97
2022-08-09T18:35:59.104Z,27.09
2022-08-09T18:38:27.334Z,27.08
2022-08-09T18:40:55.528Z,26.85
2022-08-09T18:43:23.266Z,26.85
2022-08-09T18:46:46.906Z,26.87
2022-08-09T18:48:36.899Z,26.97
2022-08-09T18:51:03.661Z,26.92
2022-08-09T18:54:01.939Z,26.82
2022-08-09T18:56:27.955Z,26.80
2022-08-09T18:58:56.724Z,26.13
2022-08-09T19:01:24.171Z,26.40
2022-08-09T19:04:01.599Z,26.33
2022-08-09T19:06:33.946Z,26.41
2022-08-09T19:09:02.922Z,26.32
2022-08-09T19:11:37.640Z,26.20
2022-08-09T19:14:06.538Z,26.16
2022-08-09T19:16:37.980Z,26.03
2022-08-09T19:19:21.240Z,25.99
2022-08-09T19:22:04.704Z,25.81
2022-08-09T19:24:39.359Z,25.59
2022-08-09T19:27:20.632Z,25.54
2022-08-09T19:30:23.016Z,25.29
2022-08-09T19:32:36.725Z,25.14
2022-08-09T19:35:04.473Z,25.00
2022-08-09T19:37:40.947Z,25.02
2022-08-09T19:40:19.333Z,24.97
2022-08-09T19:42:49.500Z,24.86
2022-08-09T19:45:16.999Z,24.54
2022-08-09T19:47:44.760Z,24.49
2022-08-09T19:50:50.857Z,24.48
2022-08-09T19:52:59.689Z,24.38
2022-08-09T19:55:53.028Z,24.22
2022-08-09T19:58:17.729Z,24.12
2022-08-09T20:00:56.708Z,24.13
2022-08-09T20:04:09.657Z,24.02
2022-08-09T20:06:24.017Z,23.94
2022-08-09T20:08:56.924Z,23.89
2022-08-09T20:11:25.913Z,23.62
2022-08-09T20:13:54.215Z,23.65
2022-08-09T20:16:33.818Z,23.52
2022-08-09T20:19:49.209Z,23.41
2022-08-09T20:21:56.588Z,23.29
2022-08-09T20:24:29.433Z,23.26
2022-08-09T20:27:01.663Z,23.08
2022-08-09T20:29:36.988Z,22.63
2022-08-09T20:32:31.224Z,22.72
2022-08-09T20:34:54.083Z,22.73
2022-08-09T20:37:21.572Z,22.70
2022-08-09T20:40:14.912Z,22.53
2022-08-09T20:42:38.102Z,22.35
2022-08-09T20:45:59.498Z,22.45
2022-08-09T20:47:53.152Z,22.44
2022-08-09T20:50:47.991Z,22.36
2022-08-09T20:53:35.259Z,22.09
2022-08-09T20:56:00.946Z,21.84
2022-08-09T20:58:32.832Z,21.97
2022-08-09T21:01:13.564Z,22.08
2022-08-09T21:05:48.461Z,21.90
2022-08-09T21:06:27.288Z,21.86
2022-08-09T21:08:58.217Z,21.91
2022-08-09T21:14:12.259Z,21.65
2022-08-09T21:16:38.933Z,21.73
2022-08-09T21:20:18.240Z,21.68
2022-08-09T21:21:56.041Z,21.54
2022-08-09T21:24:28.931Z,21.45
2022-08-09T21:27:10.215Z,21.31
2022-08-09T21:29:48.793Z,20.90
2022-08-09T21:32:18.668Z,20.86
2022-08-09T21:34:49.098Z,20.84
2022-08-09T21:37:18.187Z,20.74
2022-08-09T21:39:45.443Z,20.69
2022-08-09T21:42:17.233Z,20.73
2022-08-09T21:44:44.475Z,20.74
2022-08-09T21:47:14.147Z,20.75
2022-08-09T21:49:45.284Z,20.76
2022-08-09T21:52:17.793Z,20.71
2022-08-09T21:54:59.554Z,20.91
2022-08-09T21:57:38.867Z,20.78
2022-08-09T22:00:25.924Z,20.87
2022-08-09T22:02:58.810Z,20.76
2022-08-09T22:05:35.817Z,20.74
2022-08-09T22:08:14.071Z,20.40
2022-08-09T22:11:48.843Z,20.09
2022-08-09T22:13:35.418Z,20.05
2022-08-09T22:16:07.205Z,20.25
2022-08-09T22:18:34.669Z,20.25
2022-08-09T22:21:01.426Z,20.11
2022-08-09T22:23:35.350Z,20.24
2022-08-09T22:26:34.209Z,20.20
2022-08-09T22:29:06.792Z,20.15
2022-08-09T22:31:35.812Z,19.89
2022-08-09T22:34:02.557Z,19.83
2022-08-09T22:36:29.233Z,19.92
2022-08-09T22:39:20.830Z,20.04
2022-08-09T22:41:59.384Z,20.01
2022-08-09T22:44:32.726Z,19.93
2022-08-09T22:48:10.230Z,19.92
2022-08-09T22:49:47.410Z,19.74
2022-08-09T22:52:19.723Z,19.68
2022-08-09T22:54:47.402Z,19.75
2022-08-09T22:57:14.783Z,19.74
2022-08-09T22:59:58.413Z,19.68
2022-08-09T23:02:27.483Z,19.42
2022-08-09T23:04:55.393Z,19.34
2022-08-09T23:08:22.013Z,19.34
2022-08-09T23:10:31.432Z,19.27
2022-08-09T23:12:58.982Z,19.23
2022-08-09T23:15:26.590Z,19.25
2022-08-09T23:17:53.598Z,19.26
2022-08-09T23:20:20.441Z,19.24
2022-08-09T23:22:47.135Z,19.07
2022-08-09T23:25:13.994Z,19.01
2022-08-09T23:28:09.338Z,18.94
2022-08-09T23:30:28.189Z,18.99
2022-08-09T23:32:54.830Z,18.94
2022-08-09T23:35:21.488Z,18.95
2022-08-09T23:37:48.127Z,18.97
2022-08-09T23:40:14.836Z,18.92
2022-08-09T23:42:41.492Z,18.96
2022-08-09T23:45:09.061Z,18.83
2022-08-09T23:47:36.267Z,18.58
2022-08-09T23:50:03.951Z,18.51
2022-08-09T23:52:30.954Z,18.48
2022-08-09T23:54:58.898Z,18.54
2022-08-09T23:57:25.743Z,18.62
